createdAt,value
2023-05-05T00:01:34.295Z,81.01
2023-05-05T00:04:06.788Z,77.01
2023-05-05T00:06:39.578Z,81.29
2023-05-05T00:09:11.852Z,76.84
2023-05-05T00:11:46.671Z,75.97
2023-05-05T00:14:18.919Z,78.31
2023-05-05T00:16:51.397Z,75.41
2023-05-05T00:19:23.670Z,77.31
2023-05-05T00:21:55.896Z,78.11
2023-05-05T00:24:28.295Z,75.47
2023-05-05T00:27:04.134Z,80.09
2023-05-05T00:29:36.484Z,81.63
2023-05-05T00:32:09.029Z,82.41
2023-05-05T00:34:41.281Z,79.46
2023-05-05T00:37:13.480Z,82.00
2023-05-05T00:39:47.848Z,78.75
2023-05-05T00:42:22.680Z,78.61
2023-05-05T00:44:54.904Z,76.14
2023-05-05T00:47:27.140Z,76.36
2023-05-05T00:50:00.427Z,79.00
2023-05-05T00:52:32.969Z,80.81
2023-05-05T00:55:05.355Z,79.65
2023-05-05T00:57:40.308Z,79.16
2023-05-05T01:00:13.866Z,78.55
2023-05-05T01:02:46.349Z,78.70
2023-05-05T01:05:21.286Z,77.51
2023-05-05T01:08:06.267Z,78.74
2023-05-05T01:10:44.772Z,79.94
2023-05-05T01:13:33.235Z,81.41
2023-05-05T01:16:15.882Z,82.29
2023-05-05T01:18:58.072Z,81.69
2023-05-05T01:21:37.657Z,84.92
2023-05-05T01:24:43.034Z,88.31
2023-05-05T01:27:48.062Z,90.29
2023-05-05T01:30:42.171Z,92.66
2023-05-05T01:33:24.079Z,93.83
2023-05-05T01:36:02.734Z,93.39
2023-05-05T01:38:41.998Z,91.40
2023-05-05T01:41:19.247Z,92.23
2023-05-05T01:43:55.732Z,91.60
2023-05-05T01:46:29.350Z,96.96
2023-05-05T01:49:04.453Z,93.11
2023-05-05T01:51:38.364Z,93.15
2023-05-05T01:54:13.745Z,92.36
2023-05-05T01:56:48.395Z,94.77
2023-05-05T01:59:24.098Z,92.92
2023-05-05T02:01:57.194Z,91.15
2023-05-05T02:04:35.956Z,85.90
2023-05-05T02:07:10.186Z,83.86
2023-05-05T02:09:44.699Z,76.84
2023-05-05T02:12:18.085Z,74.05
2023-05-05T02:14:52.741Z,74.84
2023-05-05T02:17:27.389Z,72.65
2023-05-05T02:20:04.906Z,70.96
2023-05-05T02:22:37.674Z,74.49
2023-05-05T02:25:11.756Z,73.69
2023-05-05T02:27:47.710Z,72.37
2023-05-05T02:30:23.752Z,68.10
2023-05-05T02:33:04.176Z,70.54
2023-05-05T02:35:43.038Z,70.86
2023-05-05T02:38:20.178Z,73.54
2023-05-05T02:40:56.130Z,68.62
2023-05-05T02:43:33.631Z,68.44
2023-05-05T02:46:06.151Z,65.12
2023-05-05T02:48:38.384Z,65.17
2023-05-05T02:51:13.198Z,66.45
2023-05-05T02:53:45.772Z,65.92
2023-05-05T02:56:30.586Z,65.39
2023-05-05T02:59:15.351Z,62.36
2023-05-05T03:02:03.756Z,63.08
2023-05-05T03:04:42.963Z,65.65
2023-05-05T03:07:25.828Z,66.99
2023-05-05T03:10:07.585Z,69.11
2023-05-05T03:12:49.120Z,66.11
2023-05-05T03:15:23.727Z,64.52
2023-05-05T03:18:00.490Z,61.24
2023-05-05T03:20:34.381Z,62.23
2023-05-05T03:23:10.062Z,58.94
2023-05-05T03:25:49.947Z,58.94
2023-05-05T03:28:23.701Z,55.75
2023-05-05T03:30:56.410Z,53.07
2023-05-05T03:33:28.703Z,55.30
2023-05-05T03:36:01.100Z,56.84
2023-05-05T03:38:35.855Z,57.24
2023-05-05T03:41:08.088Z,56.34
2023-05-05T03:43:40.231Z,59.77
2023-05-05T03:46:13.097Z,60.87
2023-05-05T03:48:45.438Z,61.08
2023-05-05T03:51:17.884Z,62.12
2023-05-05T03:53:52.688Z,64.56
2023-05-05T03:56:25.125Z,63.94
2023-05-05T03:58:57.312Z,63.49
2023-05-05T04:01:30.159Z,61.26
2023-05-05T04:04:02.330Z,68.26
2023-05-05T04:06:34.825Z,66.91
2023-05-05T04:09:09.664Z,68.31
2023-05-05T04:11:41.885Z,66.31
2023-05-05T04:14:14.123Z,69.17
2023-05-05T04:16:46.568Z,69.28
2023-05-05T04:19:18.772Z,67.01
2023-05-05T04:21:52.166Z,68.63
2023-05-05T04:24:27.536Z,70.07
2023-05-05T04:26:59.923Z,65.86
2023-05-05T04:29:32.110Z,66.52
2023-05-05T04:32:04.399Z,67.74
2023-05-05T04:34:36.590Z,66.53
2023-05-05T04:37:08.817Z,65.71
2023-05-05T04:39:43.979Z,67.36
2023-05-05T04:42:16.192Z,67.76
2023-05-05T04:44:48.424Z,66.84
2023-05-05T04:47:20.597Z,64.57
2023-05-05T04:49:52.773Z,66.03
2023-05-05T04:52:24.933Z,63.69
2023-05-05T04:54:59.868Z,64.14
2023-05-05T04:57:33.463Z,63.86
2023-05-05T05:00:06.710Z,65.82
2023-05-05T05:02:39.879Z,60.69
2023-05-05T05:05:13.482Z,64.44
2023-05-05T05:07:46.083Z,65.16
2023-05-05T05:10:21.194Z,63.22
2023-05-05T05:12:53.514Z,65.44
2023-05-05T05:15:26.148Z,64.54
2023-05-05T05:17:58.410Z,64.89
2023-05-05T05:20:30.662Z,66.74
2023-05-05T05:23:04.628Z,66.57
2023-05-05T05:25:39.635Z,70.87
2023-05-05T05:28:11.799Z,69.45
2023-05-05T05:30:44.010Z,74.82
2023-05-05T05:33:16.232Z,75.37
2023-05-05T05:35:48.497Z,77.33
2023-05-05T05:38:20.709Z,76.04
2023-05-05T05:40:55.485Z,79.95
2023-05-05T05:43:27.793Z,79.58
2023-05-05T05:46:00.100Z,80.34
2023-05-05T05:48:32.367Z,82.18
2023-05-05T05:51:04.982Z,82.34
2023-05-05T05:53:37.271Z,82.16
2023-05-05T05:56:13.383Z,87.52
2023-05-05T05:58:45.849Z,90.10
2023-05-05T06:01:18.846Z,90.96
2023-05-05T06:03:51.204Z,90.47
2023-05-05T06:06:23.584Z,91.29
2023-05-05T06:08:55.812Z,93.08
2023-05-05T06:11:30.627Z,95.61
2023-05-05T06:14:02.828Z,91.85
2023-05-05T06:16:35.168Z,91.90
2023-05-05T06:19:09.883Z,86.59
2023-05-05T06:21:42.724Z,86.04
2023-05-05T06:24:14.915Z,79.91
2023-05-05T06:26:49.884Z,75.96
2023-05-05T06:29:22.516Z,75.66
2023-05-05T06:31:54.736Z,78.18
2023-05-05T06:34:27.165Z,78.08
2023-05-05T06:36:59.350Z,76.08
2023-05-05T06:39:31.709Z,72.87
2023-05-05T06:42:06.548Z,65.81
2023-05-05T06:44:39.236Z,71.67
2023-05-05T06:47:11.513Z,73.81
2023-05-05T06:49:43.752Z,73.99
2023-05-05T06:52:17.824Z,72.69
2023-05-05T06:54:50.076Z,70.54
2023-05-05T06:57:24.931Z,69.70
2023-05-05T06:59:57.828Z,66.59
2023-05-05T07:02:30.050Z,60.63
2023-05-05T07:05:02.479Z,62.66
2023-05-05T07:07:34.677Z,63.61
2023-05-05T07:10:07.916Z,60.61
2023-05-05T07:12:42.824Z,60.12
2023-05-05T07:15:26.748Z,60.24
2023-05-05T07:18:01.472Z,58.28
2023-05-05T07:20:33.770Z,57.96
2023-05-05T07:23:06.067Z,58.46
2023-05-05T07:25:39.523Z,55.06
2023-05-05T07:28:15.413Z,52.05
2023-05-05T07:30:47.710Z,45.61
2023-05-05T07:33:20.092Z,41.55
2023-05-05T07:35:52.879Z,41.63
2023-05-05T07:38:25.831Z,39.34
2023-05-05T07:40:58.011Z,42.27
2023-05-05T07:43:32.827Z,36.64
2023-05-05T07:46:05.264Z,37.39
2023-05-05T07:48:37.602Z,37.03
2023-05-05T07:51:09.912Z,33.36
2023-05-05T07:53:42.359Z,33.36
2023-05-05T07:56:14.692Z,34.86
2023-05-05T07:58:49.544Z,33.88
2023-05-05T08:01:21.896Z,32.74
2023-05-05T08:03:54.155Z,30.53
2023-05-05T08:06:27.901Z,40.16
2023-05-05T08:09:00.530Z,44.22
2023-05-05T08:11:32.798Z,37.58
2023-05-05T08:14:07.560Z,34.81
2023-05-05T08:16:39.750Z,32.75
2023-05-05T08:19:21.551Z,28.21
2023-05-05T08:22:01.546Z,29.38
2023-05-05T08:24:33.991Z,27.93
2023-05-05T08:27:06.221Z,29.99
2023-05-05T08:29:41.084Z,26.69
2023-05-05T08:32:13.309Z,26.67
2023-05-05T08:34:46.860Z,25.24
2023-05-05T08:37:19.102Z,26.74
2023-05-05T08:39:51.293Z,19.06
2023-05-05T08:42:36.117Z,19.43
2023-05-05T08:45:14.296Z,18.03
2023-05-05T08:47:46.861Z,17.26
2023-05-05T08:50:23.142Z,15.26
2023-05-05T08:53:12.205Z,16.19
2023-05-05T08:55:54.225Z,14.26
2023-05-05T08:58:29.035Z,18.29
2023-05-05T09:01:04.394Z,22.29
2023-05-05T09:03:37.295Z,21.24
2023-05-05T09:06:10.597Z,19.87
2023-05-05T09:08:43.702Z,22.74
2023-05-05T09:11:15.857Z,22.23
2023-05-05T09:13:48.555Z,25.12
2023-05-05T09:16:23.515Z,24.06
2023-05-05T09:19:05.066Z,23.34
2023-05-05T09:21:37.238Z,24.76
2023-05-05T09:24:12.185Z,23.89
2023-05-05T09:26:47.473Z,23.19
2023-05-05T09:29:23.798Z,23.36
2023-05-05T09:32:09.445Z,22.26
2023-05-05T09:34:42.010Z,25.95
2023-05-05T09:37:14.997Z,23.86
2023-05-05T09:39:58.525Z,26.63
2023-05-05T09:42:31.060Z,29.58
2023-05-05T09:45:03.468Z,31.97
2023-05-05T09:47:42.772Z,37.36
2023-05-05T09:50:18.668Z,44.77
2023-05-05T09:52:59.321Z,48.77
2023-05-05T09:55:32.290Z,51.89
2023-05-05T09:58:23.944Z,50.32
2023-05-05T10:00:56.969Z,48.61
2023-05-05T10:03:31.752Z,43.93
2023-05-05T10:06:04.858Z,41.39
2023-05-05T10:08:40.018Z,42.29
2023-05-05T10:11:12.772Z,41.59
2023-05-05T10:13:46.592Z,40.37
2023-05-05T10:16:23.640Z,33.77
2023-05-05T10:18:59.015Z,10.34
2023-05-05T10:21:36.747Z,17.19
2023-05-05T10:24:19.525Z,18.92
2023-05-05T10:26:55.908Z,13.73
2023-05-05T10:29:40.784Z,13.93
2023-05-05T10:35:04.551Z,15.20
2023-05-05T10:37:37.915Z,15.43
2023-05-05T10:40:12.280Z,17.16
2023-05-05T10:42:44.682Z,16.90
2023-05-05T10:45:17.097Z,18.51
2023-05-05T10:47:49.827Z,18.48
2023-05-05T10:50:34.774Z,17.09
2023-05-05T10:53:17.132Z,19.85
2023-05-05T10:55:58.007Z,23.09
2023-05-05T10:58:47.478Z,24.49
2023-05-05T11:01:34.944Z,23.76
2023-05-05T11:04:26.087Z,26.33
2023-05-05T11:07:28.300Z,25.30
2023-05-05T11:10:02.412Z,25.86
2023-05-05T11:12:38.590Z,25.68
2023-05-05T11:15:42.925Z,24.29
2023-05-05T11:18:37.240Z,24.55
2023-05-05T11:21:20.791Z,27.54
2023-05-05T11:23:56.377Z,26.26
2023-05-05T11:26:53.302Z,26.26
2023-05-05T11:29:25.517Z,30.54
2023-05-05T11:32:15.957Z,30.69
2023-05-05T11:34:54.618Z,33.66
2023-05-05T11:37:27.637Z,35.29
2023-05-05T11:40:13.952Z,37.57
2023-05-05T11:42:46.504Z,35.91
2023-05-05T11:45:27.008Z,37.24
2023-05-05T11:48:28.654Z,33.57
2023-05-05T11:51:02.561Z,33.46
2023-05-05T11:53:35.264Z,33.74
2023-05-05T11:56:29.482Z,30.79
2023-05-05T11:59:13.515Z,31.47
2023-05-05T12:01:46.907Z,28.78
2023-05-05T12:04:19.812Z,28.69
2023-05-05T12:06:52.402Z,28.55
2023-05-05T12:09:26.161Z,28.68
2023-05-05T12:12:02.889Z,28.98
2023-05-05T12:14:36.129Z,27.74
2023-05-05T12:17:12.215Z,28.11
2023-05-05T12:19:50.607Z,27.94
2023-05-05T12:22:28.740Z,29.53
2023-05-05T12:25:03.108Z,29.20
2023-05-05T12:27:38.904Z,30.44
2023-05-05T12:30:20.310Z,30.16
2023-05-05T12:32:52.527Z,29.09
2023-05-05T12:35:25.247Z,30.86
2023-05-05T12:37:58.566Z,30.91
2023-05-05T12:40:54.868Z,31.53
2023-05-05T12:43:38.783Z,32.79
2023-05-05T12:46:14.595Z,31.75
2023-05-05T12:48:48.313Z,34.21
2023-05-05T12:51:23.547Z,34.57
2023-05-05T12:54:07.799Z,35.42
2023-05-05T12:56:44.290Z,35.81
2023-05-05T12:59:34.211Z,36.66
2023-05-05T13:02:06.448Z,38.86
2023-05-05T13:04:51.466Z,38.57
2023-05-05T13:07:25.682Z,36.31
2023-05-05T13:10:11.797Z,37.06
2023-05-05T13:12:44.029Z,36.78
2023-05-05T13:15:19.649Z,38.18
2023-05-05T13:17:51.916Z,40.29
2023-05-05T13:20:24.100Z,37.99
2023-05-05T13:22:56.399Z,36.67
2023-05-05T13:25:28.893Z,36.49
2023-05-05T13:28:01.073Z,36.08
2023-05-05T13:30:36.033Z,35.63
2023-05-05T13:33:08.414Z,34.24
2023-05-05T13:35:42.264Z,36.17
2023-05-05T13:38:16.065Z,35.50
2023-05-05T13:40:52.444Z,34.96
2023-05-05T13:43:24.724Z,35.44
2023-05-05T13:46:12.315Z,32.95
2023-05-05T13:48:56.044Z,30.20
2023-05-05T13:51:28.795Z,24.27
2023-05-05T13:54:00.943Z,20.56
2023-05-05T13:56:33.311Z,19.44
2023-05-05T13:59:05.610Z,17.81
2023-05-05T14:01:40.412Z,18.89
2023-05-05T14:04:12.939Z,19.84
2023-05-05T14:06:45.379Z,15.90
2023-05-05T14:09:17.537Z,17.11
2023-05-05T14:11:49.735Z,16.49
2023-05-05T14:14:22.915Z,16.33
2023-05-05T14:16:58.279Z,15.86
2023-05-05T14:19:31.113Z,14.62
2023-05-05T14:22:03.327Z,14.76
2023-05-05T14:24:35.483Z,18.10
2023-05-05T14:27:07.696Z,22.11
2023-05-05T14:29:39.955Z,19.04
2023-05-05T14:32:14.799Z,16.04
2023-05-05T14:34:50.227Z,14.16
2023-05-05T14:37:22.662Z,13.87
2023-05-05T14:39:54.881Z,14.63
2023-05-05T14:42:27.237Z,13.01
2023-05-05T14:44:59.539Z,12.55
2023-05-05T14:47:34.383Z,12.30
2023-05-05T14:50:09.825Z,12.11
2023-05-05T14:52:42.240Z,11.96
2023-05-05T14:55:14.834Z,11.99
2023-05-05T14:57:47.012Z,13.02
2023-05-05T15:00:20.204Z,13.27
2023-05-05T15:02:55.022Z,14.34
2023-05-05T15:05:27.359Z,14.98
2023-05-05T15:07:59.575Z,13.70
2023-05-05T15:10:31.758Z,12.91
2023-05-05T15:13:03.933Z,11.89
2023-05-05T15:15:36.180Z,10.31
2023-05-05T15:18:11.231Z,9.67
2023-05-05T15:20:43.548Z,10.82
2023-05-05T15:23:16.301Z,10.34
2023-05-05T15:25:48.562Z,9.89
2023-05-05T15:28:20.716Z,10.68
2023-05-05T15:30:52.964Z,13.00
2023-05-05T15:33:27.778Z,18.37
2023-05-05T15:36:00.551Z,17.36
2023-05-05T15:38:34.551Z,15.21
2023-05-05T15:41:07.158Z,15.39
2023-05-05T15:43:39.330Z,14.20
2023-05-05T15:46:11.671Z,15.71
2023-05-05T15:48:46.546Z,16.29
2023-05-05T15:51:18.708Z,13.31
2023-05-05T15:53:52.480Z,10.20
2023-05-05T15:56:27.389Z,10.09
2023-05-05T15:58:59.838Z,13.01
2023-05-05T16:01:33.548Z,13.56
2023-05-05T16:04:08.693Z,13.94
2023-05-05T16:06:41.084Z,13.52
2023-05-05T16:09:13.212Z,12.36
2023-05-05T16:11:45.535Z,11.41
2023-05-05T16:14:17.708Z,15.69
2023-05-05T16:16:50.000Z,15.59
2023-05-05T16:19:26.805Z,12.99
2023-05-05T16:21:59.538Z,13.04
2023-05-05T16:24:31.715Z,11.14
2023-05-05T16:27:03.918Z,10.19
2023-05-05T16:29:36.158Z,10.61
2023-05-05T16:32:08.700Z,7.73
2023-05-05T16:34:43.534Z,7.22
2023-05-05T16:37:15.731Z,6.87
2023-05-05T16:39:47.870Z,6.43
2023-05-05T16:42:20.438Z,7.39
2023-05-05T16:44:52.822Z,7.19
2023-05-05T16:47:25.443Z,8.01
2023-05-05T16:50:00.375Z,6.60
2023-05-05T16:52:32.527Z,5.84
2023-05-05T16:55:04.950Z,6.19
2023-05-05T16:57:37.129Z,6.21
2023-05-05T17:00:10.807Z,5.39
2023-05-05T17:02:42.995Z,4.66
2023-05-05T17:05:19.324Z,4.74
2023-05-05T17:07:52.371Z,5.39
2023-05-05T17:10:24.787Z,12.17
2023-05-05T17:12:56.947Z,20.72
2023-05-05T17:15:29.283Z,23.99
2023-05-05T17:18:01.437Z,30.67
2023-05-05T17:20:37.722Z,13.98
2023-05-05T17:23:09.921Z,27.47
2023-05-05T17:25:42.212Z,24.14
2023-05-05T17:28:14.980Z,10.04
2023-05-05T17:30:47.235Z,5.94
2023-05-05T17:33:22.141Z,11.33
2023-05-05T17:35:58.231Z,92.47
2023-05-05T17:38:30.482Z,266.10
2023-05-05T17:41:02.754Z,45.02
2023-05-05T17:43:34.974Z,19.09
2023-05-05T17:46:07.459Z,12.79
2023-05-05T17:48:39.716Z,12.54
2023-05-05T17:51:14.599Z,9.64
2023-05-05T17:53:46.957Z,9.99
2023-05-05T17:56:19.222Z,9.88
2023-05-05T17:58:54.466Z,10.64
2023-05-05T18:01:26.883Z,11.79
2023-05-05T18:03:59.081Z,11.06
2023-05-05T18:06:34.007Z,10.86
2023-05-05T18:09:06.338Z,11.59
2023-05-05T18:11:38.472Z,13.25
2023-05-05T18:14:11.085Z,15.44
2023-05-05T18:16:48.912Z,15.26
2023-05-05T18:19:22.094Z,12.76
2023-05-05T18:21:58.511Z,12.76
2023-05-05T18:24:31.976Z,13.51
2023-05-05T18:27:04.273Z,16.04
2023-05-05T18:29:37.478Z,22.26
2023-05-05T18:32:10.270Z,28.49
2023-05-05T18:34:42.673Z,26.51
2023-05-05T18:37:17.466Z,23.48
2023-05-05T18:39:49.858Z,23.12
2023-05-05T18:42:22.692Z,24.45
2023-05-05T18:44:55.003Z,28.70
2023-05-05T18:47:27.122Z,43.61
2023-05-05T18:49:59.345Z,44.21
2023-05-05T18:52:34.168Z,36.24
2023-05-05T18:55:07.034Z,31.93
2023-05-05T18:57:39.379Z,24.17
2023-05-05T19:00:13.140Z,21.91
2023-05-05T19:02:45.342Z,27.42
2023-05-05T19:05:17.582Z,28.99
2023-05-05T19:07:52.415Z,25.35
2023-05-05T19:10:24.585Z,21.89
2023-05-05T19:12:56.809Z,21.04
2023-05-05T19:15:29.334Z,19.21
2023-05-05T19:18:01.874Z,19.36
2023-05-05T19:20:34.059Z,20.01
2023-05-05T19:23:08.838Z,21.26
2023-05-05T19:25:41.729Z,20.12
2023-05-05T19:28:14.136Z,19.36
2023-05-05T19:30:46.735Z,22.52
2023-05-05T19:33:18.990Z,24.59
2023-05-05T19:35:51.309Z,25.54
2023-05-05T19:38:26.093Z,26.02
2023-05-05T19:40:58.320Z,26.26
2023-05-05T19:43:30.459Z,26.69
2023-05-05T19:46:02.931Z,26.31
2023-05-05T19:48:35.164Z,28.23
2023-05-05T19:51:07.318Z,31.66
2023-05-05T19:53:43.023Z,29.51
2023-05-05T19:56:15.293Z,33.62
2023-05-05T19:58:59.132Z,33.75
2023-05-05T20:01:33.153Z,33.25
2023-05-05T20:04:06.266Z,29.85
2023-05-05T20:06:38.766Z,31.83
2023-05-05T20:09:13.595Z,32.91
2023-05-05T20:11:45.968Z,31.09
2023-05-05T20:14:18.196Z,30.72
2023-05-05T20:16:50.817Z,30.02
2023-05-05T20:19:23.087Z,30.82
2023-05-05T20:21:55.301Z,30.00
2023-05-05T20:24:30.174Z,32.89
2023-05-05T20:27:02.473Z,33.09
2023-05-05T20:29:34.602Z,36.69
2023-05-05T20:32:06.974Z,36.76
2023-05-05T20:34:39.424Z,34.69
2023-05-05T20:37:13.683Z,28.51
2023-05-05T20:39:48.687Z,20.50
2023-05-05T20:42:20.877Z,18.92
2023-05-05T20:44:53.206Z,24.26
2023-05-05T20:47:25.601Z,26.64
2023-05-05T20:49:57.819Z,31.40
2023-05-05T20:52:30.121Z,36.07
2023-05-05T20:55:05.005Z,35.69
2023-05-05T20:57:37.718Z,32.61
2023-05-05T21:00:11.828Z,34.49
2023-05-05T21:02:44.480Z,39.51
2023-05-05T21:05:17.774Z,39.80
2023-05-05T21:07:50.030Z,38.41
2023-05-05T21:10:25.009Z,38.38
2023-05-05T21:12:57.197Z,38.36
2023-05-05T21:15:29.646Z,37.10
2023-05-05T21:18:02.099Z,37.77
2023-05-05T21:20:34.337Z,39.24
2023-05-05T21:23:06.547Z,37.05
2023-05-05T21:25:41.684Z,37.24
2023-05-05T21:28:14.028Z,36.44
2023-05-05T21:30:54.877Z,32.49
2023-05-05T21:33:37.314Z,34.80
2023-05-05T21:36:10.239Z,31.16
2023-05-05T21:38:42.404Z,30.29
2023-05-05T21:41:17.132Z,34.62
2023-05-05T21:43:49.320Z,34.64
2023-05-05T21:46:22.209Z,37.14
2023-05-05T21:48:54.440Z,39.48
2023-05-05T21:51:27.511Z,38.06
2023-05-05T21:53:59.727Z,39.16
2023-05-05T21:56:34.753Z,36.71
2023-05-05T21:59:08.404Z,36.89
2023-05-05T22:01:40.679Z,36.50
2023-05-05T22:04:12.998Z,29.27
2023-05-05T22:06:45.299Z,24.51
2023-05-05T22:09:17.541Z,23.66
2023-05-05T22:11:52.295Z,22.38
2023-05-05T22:14:24.441Z,21.78
2023-05-05T22:16:56.869Z,19.91
2023-05-05T22:19:29.111Z,19.05
2023-05-05T22:22:02.955Z,19.02
2023-05-05T22:24:35.756Z,18.26
2023-05-05T22:27:10.524Z,20.92
2023-05-05T22:29:42.624Z,22.52
2023-05-05T22:32:14.800Z,21.61
2023-05-05T22:34:47.115Z,23.81
2023-05-05T22:37:19.273Z,24.12
2023-05-05T22:39:51.454Z,25.86
2023-05-05T22:42:26.970Z,25.66
2023-05-05T22:44:59.233Z,27.79
2023-05-05T22:47:31.475Z,25.96
2023-05-05T22:50:03.774Z,26.34
2023-05-05T22:52:36.415Z,26.26
2023-05-05T22:55:09.749Z,27.79
2023-05-05T22:57:45.347Z,27.99
2023-05-05T23:00:18.461Z,27.59
2023-05-05T23:02:50.779Z,26.81
2023-05-05T23:05:23.283Z,27.96
2023-05-05T23:07:55.471Z,28.16
2023-05-05T23:10:27.669Z,28.24
2023-05-05T23:13:02.540Z,27.11
2023-05-05T23:15:35.256Z,28.12
2023-05-05T23:18:07.620Z,27.40
2023-05-05T23:20:39.850Z,26.73
2023-05-05T23:23:12.058Z,27.41
2023-05-05T23:25:44.413Z,27.09
2023-05-05T23:28:20.320Z,29.82
2023-05-05T23:30:52.793Z,32.49
2023-05-05T23:33:25.171Z,31.42
2023-05-05T23:35:57.872Z,32.36
2023-05-05T23:38:30.045Z,32.68
2023-05-05T23:41:02.213Z,36.66
2023-05-05T23:43:37.024Z,42.22
2023-05-05T23:46:09.474Z,43.53
2023-05-05T23:48:41.947Z,40.09
2023-05-05T23:51:14.183Z,38.25
2023-05-05T23:53:46.496Z,35.54
2023-05-05T23:56:18.810Z,34.89
2023-05-05T23:58:53.606Z,38.75
